createdAt,value
2018-12-16T00:00:14.535Z,94349.35
2018-12-16T00:02:42.248Z,94351.42
2018-12-16T00:05:09.883Z,94354.56
2018-12-16T00:07:37.612Z,94346.84
2018-12-16T00:10:06.108Z,94347.84
2018-12-16T00:12:33.855Z,94348.46
2018-12-16T00:15:01.563Z,94346.30
2018-12-16T00:17:29.260Z,94348.67
2018-12-16T00:19:56.929Z,94344.42
2018-12-16T00:22:29.831Z,94336.00
2018-12-16T00:24:54.702Z,94343.52
2018-12-16T00:27:22.593Z,94334.95
2018-12-16T00:29:50.526Z,94335.80
2018-12-16T00:32:18.241Z,94335.09
2018-12-16T00:34:46.382Z,94325.17
2018-12-16T00:37:14.119Z,94329.39
2018-12-16T00:39:41.983Z,94322.97
2018-12-16T00:42:09.636Z,94318.16
2018-12-16T00:44:37.221Z,94315.41
2018-12-16T00:47:04.974Z,94318.61
2018-12-16T00:49:33.138Z,94312.28
2018-12-16T00:52:01.439Z,94312.08
2018-12-16T00:54:29.038Z,94319.00
2018-12-16T00:56:56.736Z,94318.08
2018-12-16T00:59:24.393Z,94319.77
2018-12-16T01:01:52.212Z,94314.15
2018-12-16T01:04:19.907Z,94311.89
2018-12-16T01:06:47.725Z,94312.53
2018-12-16T01:09:15.636Z,94306.50
2018-12-16T01:11:43.346Z,94312.77
2018-12-16T01:14:11.069Z,94299.14
2018-12-16T01:16:38.657Z,94301.39
2018-12-16T01:19:06.304Z,94303.22
2018-12-16T01:21:33.919Z,94295.56
2018-12-16T01:24:01.582Z,94298.55
2018-12-16T01:26:29.257Z,94287.55
2018-12-16T01:28:56.875Z,94294.72
2018-12-16T01:31:24.542Z,94293.84
2018-12-16T01:33:52.240Z,94292.34
2018-12-16T01:36:19.869Z,94289.45
2018-12-16T01:38:47.561Z,94292.70
2018-12-16T01:41:15.313Z,94283.54
2018-12-16T01:43:42.970Z,94279.10
2018-12-16T01:46:10.630Z,94282.20
2018-12-16T01:48:38.246Z,94275.01
2018-12-16T01:51:05.902Z,94279.94
2018-12-16T01:53:33.545Z,94274.47
2018-12-16T01:56:01.184Z,94276.81
2018-12-16T01:58:28.850Z,94278.94
2018-12-16T02:00:56.642Z,94274.22
2018-12-16T02:03:24.277Z,94272.51
2018-12-16T02:05:52.020Z,94268.53
2018-12-16T02:08:19.677Z,94265.20
2018-12-16T02:10:47.455Z,94261.17
2018-12-16T02:13:15.218Z,94256.86
2018-12-16T02:15:42.820Z,94254.89
2018-12-16T02:18:10.505Z,94256.62
2018-12-16T02:20:38.689Z,94252.64
2018-12-16T02:23:07.288Z,94254.27
2018-12-16T02:25:38.029Z,94243.55
2018-12-16T02:28:06.526Z,94238.87
2018-12-16T02:30:34.190Z,94235.42
2018-12-16T02:33:01.887Z,94233.14
2018-12-16T02:35:30.431Z,94231.99
2018-12-16T02:37:58.066Z,94223.80
2018-12-16T02:40:25.751Z,94225.16
2018-12-16T02:42:53.554Z,94219.77
2018-12-16T02:45:21.266Z,94223.56
2018-12-16T02:47:48.977Z,94214.81
2018-12-16T02:50:16.710Z,94215.05
2018-12-16T02:52:44.507Z,94212.77
2018-12-16T02:55:12.452Z,94210.69
2018-12-16T02:57:40.166Z,94209.57
2018-12-16T03:00:08.431Z,94202.72
2018-12-16T03:02:36.105Z,94201.64
2018-12-16T03:05:04.052Z,94203.95
2018-12-16T03:07:31.713Z,94209.03
2018-12-16T03:09:59.378Z,94198.28
2018-12-16T03:12:27.124Z,94196.44
2018-12-16T03:14:54.735Z,94203.44
2018-12-16T03:17:22.400Z,94201.02
2018-12-16T03:19:50.030Z,94202.99
2018-12-16T03:22:17.940Z,94206.31
2018-12-16T03:24:45.607Z,94201.06
2018-12-16T03:27:13.286Z,94205.90
2018-12-16T03:29:40.974Z,94210.95
2018-12-16T03:32:08.761Z,94210.92
2018-12-16T03:34:36.413Z,94213.25
2018-12-16T03:37:04.107Z,94211.37
2018-12-16T03:39:31.697Z,94209.81
2018-12-16T03:42:00.212Z,94210.88
2018-12-16T03:44:27.874Z,94206.16
2018-12-16T03:46:55.634Z,94206.58
2018-12-16T03:49:23.335Z,94199.98
2018-12-16T03:51:51.080Z,94200.73
2018-12-16T03:54:18.856Z,94206.66
2018-12-16T03:56:47.066Z,94209.12
2018-12-16T03:59:16.943Z,94204.14
2018-12-16T04:01:47.334Z,94199.84
2018-12-16T04:04:15.014Z,94204.50
2018-12-16T04:06:43.356Z,94198.80
2018-12-16T04:09:11.337Z,94195.56
2018-12-16T04:11:39.077Z,94193.03
2018-12-16T04:14:06.739Z,94191.09
2018-12-16T04:16:34.501Z,94193.77
2018-12-16T04:19:02.197Z,94194.33
2018-12-16T04:21:29.955Z,94191.45
2018-12-16T04:23:57.650Z,94189.30
2018-12-16T04:26:25.318Z,94190.58
2018-12-16T04:28:52.976Z,94184.48
2018-12-16T04:31:20.562Z,94183.86
2018-12-16T04:33:48.212Z,94181.97
2018-12-16T04:36:16.030Z,94177.31
2018-12-16T04:38:43.801Z,94171.58
2018-12-16T04:41:11.701Z,94164.88
2018-12-16T04:43:39.383Z,94156.37
2018-12-16T04:46:07.188Z,94167.73
2018-12-16T04:48:34.893Z,94160.14
2018-12-16T04:51:02.547Z,94168.80
2018-12-16T04:53:35.887Z,94160.67
2018-12-16T04:55:59.967Z,94160.94
2018-12-16T04:58:27.587Z,94156.02
2018-12-16T05:00:55.284Z,94160.11
2018-12-16T05:03:23.187Z,94155.30
2018-12-16T05:05:50.785Z,94157.98
2018-12-16T05:08:18.612Z,94150.17
2018-12-16T05:10:46.321Z,94156.81
2018-12-16T05:13:13.970Z,94153.95
2018-12-16T05:15:42.270Z,94154.47
2018-12-16T05:18:09.853Z,94154.04
2018-12-16T05:20:37.634Z,94150.11
2018-12-16T05:23:05.526Z,94160.85
2018-12-16T05:25:33.230Z,94144.19
2018-12-16T05:28:00.944Z,94139.53
2018-12-16T05:30:28.525Z,94137.21
2018-12-16T05:32:56.463Z,94136.38
2018-12-16T05:35:24.121Z,94135.42
2018-12-16T05:37:51.706Z,94132.98
2018-12-16T05:40:19.305Z,94128.42
2018-12-16T05:42:46.955Z,94134.34
2018-12-16T05:45:14.562Z,94127.91
2018-12-16T05:47:42.330Z,94125.38
2018-12-16T05:50:10.564Z,94127.09
2018-12-16T05:52:38.375Z,94128.98
2018-12-16T05:55:06.033Z,94126.91
2018-12-16T05:57:33.651Z,94126.08
2018-12-16T06:00:01.312Z,94131.48
2018-12-16T06:02:28.898Z,94127.44
2018-12-16T06:04:56.553Z,94120.28
2018-12-16T06:07:24.210Z,94123.69
2018-12-16T06:09:51.966Z,94118.59
2018-12-16T06:12:19.547Z,94114.84
2018-12-16T06:14:47.464Z,94112.14
2018-12-16T06:17:15.098Z,94114.22
2018-12-16T06:19:42.851Z,94118.05
2018-12-16T06:22:10.482Z,94126.82
2018-12-16T06:24:38.129Z,94120.47
2018-12-16T06:27:05.822Z,94125.22
2018-12-16T06:29:34.334Z,94120.39
2018-12-16T06:32:02.208Z,94130.75
2018-12-16T06:34:29.789Z,94126.82
2018-12-16T06:36:57.519Z,94129.80
2018-12-16T06:39:25.379Z,94127.35
2018-12-16T06:41:53.259Z,94131.74
2018-12-16T06:44:20.887Z,94131.90
2018-12-16T06:46:48.491Z,94132.53
2018-12-16T06:49:16.355Z,94133.23
2018-12-16T06:51:44.211Z,94134.05
2018-12-16T06:54:11.816Z,94131.09
2018-12-16T06:56:39.497Z,94128.05
2018-12-16T06:59:07.310Z,94123.93
2018-12-16T07:01:35.337Z,94128.08
2018-12-16T07:04:03.048Z,94122.55
2018-12-16T07:06:30.664Z,94120.58
2018-12-16T07:08:58.535Z,94114.12
2018-12-16T07:11:26.252Z,94108.35
2018-12-16T07:13:53.886Z,94115.66
2018-12-16T07:16:21.691Z,94112.61
2018-12-16T07:18:49.348Z,94119.25
2018-12-16T07:21:17.183Z,94123.16
2018-12-16T07:23:44.847Z,94121.00
2018-12-16T07:26:12.515Z,94119.23
2018-12-16T07:28:40.436Z,94117.91
2018-12-16T07:31:08.163Z,94125.23
2018-12-16T07:33:35.816Z,94122.86
2018-12-16T07:36:03.721Z,94127.62
2018-12-16T07:38:31.747Z,94121.72
2018-12-16T07:41:00.437Z,94125.42
2018-12-16T07:43:34.861Z,94111.91
2018-12-16T07:46:02.855Z,94104.86
2018-12-16T07:48:32.227Z,94095.25
2018-12-16T07:51:00.216Z,94087.91
2018-12-16T07:53:28.372Z,94084.36
2018-12-16T07:55:57.092Z,94086.06
2018-12-16T07:58:24.932Z,94088.48
2018-12-16T08:00:53.841Z,94085.06
2018-12-16T08:03:23.266Z,94081.89
2018-12-16T08:05:51.119Z,94085.32
2018-12-16T08:08:18.771Z,94093.25
2018-12-16T08:10:46.361Z,94089.91
2018-12-16T08:13:14.811Z,94088.72
2018-12-16T08:15:42.729Z,94094.69
2018-12-16T08:18:10.414Z,94093.14
2018-12-16T08:20:38.188Z,94094.29
2018-12-16T08:23:07.044Z,94088.29
2018-12-16T08:25:35.658Z,94090.01
2018-12-16T08:28:03.341Z,94079.52
2018-12-16T08:30:31.085Z,94085.30
2018-12-16T08:32:58.960Z,94087.00
2018-12-16T08:35:26.693Z,94085.08
2018-12-16T08:37:54.586Z,94085.17
2018-12-16T08:40:22.350Z,94085.75
2018-12-16T08:42:50.984Z,94086.42
2018-12-16T08:45:19.762Z,94085.91
2018-12-16T08:47:49.259Z,94083.82
2018-12-16T08:50:16.960Z,94087.73
2018-12-16T08:52:44.617Z,94082.78
2018-12-16T08:55:12.270Z,94072.75
2018-12-16T08:57:41.032Z,94075.22
2018-12-16T09:00:08.797Z,94063.16
2018-12-16T09:02:36.490Z,94059.27
2018-12-16T09:05:04.706Z,94055.05
2018-12-16T09:07:37.211Z,94045.59
2018-12-16T09:10:02.124Z,94051.37
2018-12-16T09:12:33.551Z,94050.44
2018-12-16T09:15:01.144Z,94042.79
2018-12-16T09:17:29.424Z,94040.23
2018-12-16T09:19:56.996Z,94038.81
2018-12-16T09:22:24.690Z,94045.81
2018-12-16T09:24:52.379Z,94038.28
2018-12-16T09:27:20.411Z,94036.59
2018-12-16T09:29:48.003Z,94039.84
2018-12-16T09:32:15.675Z,94035.44
2018-12-16T09:34:43.591Z,94038.86
2018-12-16T09:37:11.261Z,94026.43
2018-12-16T09:39:39.748Z,94028.27
2018-12-16T09:42:07.432Z,94025.55
2018-12-16T09:44:37.493Z,94024.20
2018-12-16T09:47:05.174Z,94021.36
2018-12-16T09:49:33.474Z,94024.13
2018-12-16T09:52:01.081Z,94027.57
2018-12-16T09:54:29.624Z,94024.51
2018-12-16T09:56:57.285Z,94020.13
2018-12-16T09:59:25.570Z,94015.03
2018-12-16T10:01:53.140Z,94001.56
2018-12-16T10:04:21.785Z,93996.64
2018-12-16T10:06:49.402Z,94000.56
2018-12-16T10:09:17.074Z,94009.84
2018-12-16T10:11:44.669Z,93992.65
2018-12-16T10:14:12.736Z,93994.96
2018-12-16T10:16:40.799Z,93991.28
2018-12-16T10:19:08.412Z,93994.80
2018-12-16T10:21:36.237Z,93990.59
2018-12-16T10:24:04.658Z,93970.00
2018-12-16T10:26:33.714Z,93985.38
2018-12-16T10:29:01.612Z,93995.31
2018-12-16T10:31:29.826Z,93993.22
2018-12-16T10:33:57.543Z,93990.55
2018-12-16T10:36:25.187Z,93993.14
2018-12-16T10:38:52.889Z,93990.62
2018-12-16T10:41:20.579Z,93989.62
2018-12-16T10:43:49.212Z,93989.41
2018-12-16T10:46:16.868Z,93979.20
2018-12-16T10:48:45.481Z,93971.70
2018-12-16T10:51:13.122Z,93974.40
2018-12-16T10:53:40.760Z,93973.38
2018-12-16T10:56:08.720Z,93970.72
2018-12-16T10:58:36.333Z,93972.73
2018-12-16T11:01:09.511Z,93982.10
2018-12-16T11:03:37.171Z,93974.23
2018-12-16T11:06:05.010Z,93969.61
2018-12-16T11:08:32.940Z,93962.66
2018-12-16T11:11:00.754Z,93960.92
2018-12-16T11:13:28.473Z,93957.77
2018-12-16T11:15:56.068Z,93950.02
2018-12-16T11:18:24.577Z,93947.80
2018-12-16T11:20:52.354Z,93945.49
2018-12-16T11:23:22.894Z,93942.05
2018-12-16T11:25:51.706Z,93936.60
2018-12-16T11:28:21.827Z,93926.02
2018-12-16T11:30:50.192Z,93936.28
2018-12-16T11:33:18.115Z,93950.06
2018-12-16T11:35:45.745Z,93945.49
2018-12-16T11:38:14.064Z,93943.97
2018-12-16T11:40:42.008Z,93946.10
2018-12-16T11:43:09.672Z,93946.25
2018-12-16T11:45:37.365Z,93950.83
2018-12-16T11:48:05.242Z,93946.69
2018-12-16T11:50:33.211Z,93955.54
2018-12-16T11:53:00.973Z,93959.31
2018-12-16T11:55:28.708Z,93953.06
2018-12-16T11:57:56.411Z,93953.27
2018-12-16T12:00:25.615Z,93947.27
2018-12-16T12:02:53.496Z,93935.40
2018-12-16T12:05:21.167Z,93926.42
2018-12-16T12:07:48.931Z,93936.52
2018-12-16T12:10:19.429Z,93931.86
2018-12-16T12:12:47.059Z,93932.56
2018-12-16T12:15:14.877Z,93939.70
2018-12-16T12:17:42.773Z,93934.96
2018-12-16T12:20:12.769Z,93939.41
2018-12-16T12:22:40.563Z,93937.25
2018-12-16T12:25:08.365Z,93932.79
2018-12-16T12:27:36.227Z,93929.41
2018-12-16T12:30:06.231Z,93923.33
2018-12-16T12:32:33.969Z,93914.61
2018-12-16T12:35:02.481Z,93921.18
2018-12-16T12:37:30.279Z,93917.65
2018-12-16T12:39:58.009Z,93925.45
2018-12-16T12:42:25.594Z,93920.19
2018-12-16T12:44:53.225Z,93929.21
2018-12-16T12:47:20.883Z,93934.87
2018-12-16T12:49:48.481Z,93935.13
2018-12-16T12:52:16.954Z,93940.55
2018-12-16T12:54:45.750Z,93947.29
2018-12-16T12:57:13.480Z,93949.05
2018-12-16T12:59:41.154Z,93947.45
2018-12-16T13:02:09.862Z,93944.94
2018-12-16T13:04:37.534Z,93945.21
2018-12-16T13:07:06.520Z,93936.22
2018-12-16T13:09:34.445Z,93930.39
2018-12-16T13:12:03.779Z,93932.19
2018-12-16T13:14:31.398Z,93932.80
2018-12-16T13:17:00.147Z,93934.06
2018-12-16T13:19:29.674Z,93943.91
2018-12-16T13:21:58.537Z,93935.53
2018-12-16T13:24:26.222Z,93939.43
2018-12-16T13:26:54.143Z,93946.44
2018-12-16T13:29:23.315Z,93953.59
2018-12-16T13:31:50.957Z,93955.97
2018-12-16T13:34:19.360Z,93954.13
2018-12-16T13:36:47.863Z,93953.98
2018-12-16T13:39:15.743Z,93952.80
2018-12-16T13:41:43.481Z,93951.30
2018-12-16T13:44:12.127Z,93946.39
2018-12-16T13:46:41.744Z,93939.08
2018-12-16T13:49:09.980Z,93944.35
2018-12-16T13:51:38.982Z,93946.05
2018-12-16T13:54:06.622Z,93950.03
2018-12-16T13:56:34.506Z,93956.08
2018-12-16T13:59:04.104Z,93966.56
2018-12-16T14:01:31.848Z,93958.37
2018-12-16T14:03:59.517Z,93967.27
2018-12-16T14:06:27.123Z,93969.81
2018-12-16T14:08:54.735Z,93968.81
2018-12-16T14:11:22.409Z,93971.42
2018-12-16T14:13:50.039Z,93969.26
2018-12-16T14:16:17.815Z,93977.33
2018-12-16T14:18:45.514Z,93973.06
2018-12-16T14:21:14.690Z,93981.84
2018-12-16T14:23:42.259Z,93978.76
2018-12-16T14:26:11.069Z,93986.72
2018-12-16T14:28:38.707Z,93986.79
2018-12-16T14:31:06.789Z,93987.13
2018-12-16T14:33:34.619Z,93992.17
2018-12-16T14:36:04.287Z,94000.53
2018-12-16T14:38:32.331Z,94000.52
2018-12-16T14:40:59.926Z,93998.59
2018-12-16T14:43:31.226Z,94005.39
2018-12-16T14:45:58.827Z,94006.72
2018-12-16T14:48:26.688Z,94001.91
2018-12-16T14:50:54.440Z,94001.37
2018-12-16T14:53:22.226Z,94005.89
2018-12-16T14:55:55.124Z,93998.08
2018-12-16T14:58:19.572Z,94003.56
2018-12-16T15:00:48.436Z,93998.70
2018-12-16T15:03:16.120Z,94002.34
2018-12-16T15:05:43.815Z,94003.77
2018-12-16T15:08:12.234Z,94008.16
2018-12-16T15:10:39.909Z,94009.61
2018-12-16T15:13:07.581Z,94014.97
2018-12-16T15:15:35.225Z,94017.70
2018-12-16T15:18:02.876Z,94021.55
2018-12-16T15:20:30.614Z,94020.58
2018-12-16T15:22:58.421Z,94021.03
2018-12-16T15:25:26.062Z,94010.70
2018-12-16T15:27:54.009Z,94013.39
2018-12-16T15:30:21.713Z,94012.20
2018-12-16T15:32:49.319Z,94004.06
2018-12-16T15:35:17.023Z,94018.70
2018-12-16T15:37:44.775Z,94027.01
2018-12-16T15:40:12.512Z,94015.16
2018-12-16T15:42:41.273Z,94022.50
2018-12-16T15:45:09.140Z,94024.72
2018-12-16T15:47:36.861Z,94020.31
2018-12-16T15:50:06.409Z,94018.39
2018-12-16T15:52:34.489Z,94024.34
2018-12-16T15:55:02.243Z,94022.50
2018-12-16T15:57:30.142Z,94017.14
2018-12-16T15:59:57.964Z,94017.59
2018-12-16T16:02:25.712Z,94025.28
2018-12-16T16:04:53.361Z,94018.40
2018-12-16T16:07:21.830Z,94011.38
2018-12-16T16:09:50.009Z,94016.82
2018-12-16T16:12:17.789Z,94017.58
2018-12-16T16:14:45.555Z,94008.19
2018-12-16T16:17:13.286Z,94008.05
2018-12-16T16:19:42.130Z,94025.23
2018-12-16T16:22:09.975Z,94024.41
2018-12-16T16:24:37.757Z,94026.01
2018-12-16T16:27:05.601Z,94028.61
2018-12-16T16:29:33.252Z,94030.80
2018-12-16T16:32:00.992Z,94026.52
2018-12-16T16:34:28.778Z,94036.05
2018-12-16T16:36:56.557Z,94023.21
2018-12-16T16:39:24.328Z,93959.75
2018-12-16T16:41:52.135Z,94035.80
2018-12-16T16:44:19.788Z,94050.73
2018-12-16T16:46:47.977Z,94053.03
2018-12-16T16:49:16.928Z,94062.45
2018-12-16T16:51:48.548Z,94062.53
2018-12-16T16:54:16.361Z,94060.58
2018-12-16T16:56:46.203Z,94077.56
2018-12-16T16:59:14.273Z,94075.50
2018-12-16T17:01:42.162Z,94080.09
2018-12-16T17:04:11.551Z,94088.91
2018-12-16T17:06:40.029Z,94094.18
2018-12-16T17:09:13.588Z,94087.94
2018-12-16T17:11:42.532Z,94075.06
2018-12-16T17:14:10.382Z,94086.89
2018-12-16T17:16:40.036Z,94078.50
2018-12-16T17:19:08.189Z,94080.00
2018-12-16T17:21:36.560Z,94080.39
2018-12-16T17:24:04.232Z,94081.77
2018-12-16T17:26:35.860Z,94080.51
2018-12-16T17:29:04.648Z,94087.91
2018-12-16T17:31:32.490Z,94087.75
2018-12-16T17:34:00.206Z,94085.80
2018-12-16T17:36:27.866Z,94093.60
2018-12-16T17:38:55.543Z,94092.47
2018-12-16T17:41:23.473Z,94096.83
2018-12-16T17:43:51.244Z,94096.48
2018-12-16T17:46:19.186Z,94104.63
2018-12-16T17:48:48.626Z,94104.17
2018-12-16T17:51:16.765Z,94104.75
2018-12-16T17:53:44.483Z,94107.73
2018-12-16T17:56:13.044Z,94106.23
2018-12-16T17:58:41.963Z,94107.69
2018-12-16T18:01:09.727Z,94102.50
2018-12-16T18:03:41.708Z,94112.80
2018-12-16T18:06:10.386Z,94109.79
2018-12-16T18:08:38.216Z,94108.13
2018-12-16T18:11:05.900Z,94124.80
2018-12-16T18:13:33.702Z,94129.81
2018-12-16T18:16:02.603Z,94139.56
2018-12-16T18:18:31.505Z,94138.13
2018-12-16T18:21:00.282Z,94128.18
2018-12-16T18:23:32.883Z,94139.04
2018-12-16T18:26:00.676Z,94133.75
2018-12-16T18:28:28.444Z,94141.00
2018-12-16T18:30:56.168Z,94134.58
2018-12-16T18:33:23.998Z,94141.35
2018-12-16T18:35:51.906Z,94137.83
2018-12-16T18:38:19.562Z,94136.52
2018-12-16T18:40:47.293Z,94141.35
2018-12-16T18:43:14.952Z,94133.11
2018-12-16T18:45:42.729Z,94133.00
2018-12-16T18:48:10.468Z,94125.27
2018-12-16T18:50:38.757Z,94137.09
2018-12-16T18:53:06.477Z,94137.67
2018-12-16T18:55:34.323Z,94135.83
2018-12-16T18:58:03.858Z,94131.28
2018-12-16T19:00:31.549Z,94138.86
2018-12-16T19:03:00.285Z,94135.42
2018-12-16T19:05:28.058Z,94131.28
2018-12-16T19:07:55.829Z,94134.45
2018-12-16T19:10:23.664Z,94142.20
2018-12-16T19:12:51.274Z,94142.89
2018-12-16T19:15:20.203Z,94145.64
2018-12-16T19:17:49.357Z,94154.37
2018-12-16T19:20:17.190Z,94153.33
2018-12-16T19:22:45.235Z,94152.65
2018-12-16T19:25:13.589Z,94149.23
2018-12-16T19:27:41.606Z,94144.88
2018-12-16T19:30:09.382Z,94136.26
2018-12-16T19:32:37.104Z,94156.36
2018-12-16T19:35:06.377Z,94151.99
2018-12-16T19:37:34.139Z,94155.78
2018-12-16T19:40:01.970Z,94160.03
2018-12-16T19:42:29.705Z,94165.55
2018-12-16T19:44:57.584Z,94162.21
2018-12-16T19:47:25.518Z,94159.45
2018-12-16T19:49:53.328Z,94164.75
2018-12-16T19:52:21.441Z,94161.55
2018-12-16T19:54:49.686Z,94159.70
2018-12-16T19:57:17.345Z,94154.74
2018-12-16T19:59:45.249Z,94158.42
2018-12-16T20:02:14.838Z,94160.59
2018-12-16T20:04:45.868Z,94155.80
2018-12-16T20:07:13.571Z,94163.73
2018-12-16T20:09:41.254Z,94163.50
2018-12-16T20:12:09.041Z,94164.52
2018-12-16T20:14:37.219Z,94168.19
2018-12-16T20:17:05.156Z,94176.22
2018-12-16T20:19:34.702Z,94182.64
2018-12-16T20:22:02.327Z,94182.20
2018-12-16T20:24:30.121Z,94155.56
2018-12-16T20:26:57.975Z,94174.28
2018-12-16T20:29:25.639Z,94184.36
2018-12-16T20:31:53.424Z,94189.65
2018-12-16T20:34:21.967Z,94200.66
2018-12-16T20:36:49.712Z,94199.38
2018-12-16T20:39:17.421Z,94205.14
2018-12-16T20:41:45.153Z,94212.67
2018-12-16T20:44:12.919Z,94219.90
2018-12-16T20:46:40.559Z,94224.37
2018-12-16T20:49:08.459Z,94221.06
2018-12-16T20:51:36.406Z,94220.12
2018-12-16T20:54:04.219Z,94225.77
2018-12-16T20:56:31.906Z,94226.52
2018-12-16T20:58:59.639Z,94226.73
2018-12-16T21:01:27.344Z,94230.45
2018-12-16T21:03:55.712Z,94226.00
2018-12-16T21:06:23.621Z,94231.61
2018-12-16T21:08:52.728Z,94231.48
2018-12-16T21:14:31.870Z,94230.11
2018-12-16T21:17:05.157Z,94240.85
2018-12-16T21:19:33.142Z,94230.30
2018-12-16T21:22:00.861Z,94225.93
2018-12-16T21:24:28.969Z,94222.06
2018-12-16T21:26:56.667Z,94225.27
2018-12-16T21:29:24.378Z,94226.63
2018-12-16T21:31:52.133Z,94231.33
2018-12-16T21:34:19.897Z,94236.94
2018-12-16T21:36:48.839Z,94245.55
2018-12-16T21:39:16.595Z,94244.85
2018-12-16T21:41:44.270Z,94248.50
2018-12-16T21:44:11.932Z,94249.62
2018-12-16T21:46:39.649Z,94243.77
2018-12-16T21:49:07.329Z,94249.24
2018-12-16T21:51:35.105Z,94239.61
2018-12-16T21:54:02.798Z,94233.91
2018-12-16T21:56:31.382Z,94231.23
2018-12-16T21:59:00.472Z,94227.45
2018-12-16T22:01:28.290Z,94235.90
2018-12-16T22:03:55.978Z,94236.23
2018-12-16T22:06:23.709Z,94233.91
2018-12-16T22:08:51.442Z,94235.38
2018-12-16T22:11:19.063Z,94239.91
2018-12-16T22:13:47.330Z,94242.59
2018-12-16T22:16:15.040Z,94245.56
2018-12-16T22:18:42.730Z,94245.39
2018-12-16T22:21:10.452Z,94245.17
2018-12-16T22:23:38.080Z,94254.46
2018-12-16T22:26:05.858Z,94251.73
2018-12-16T22:28:33.510Z,94252.08
2018-12-16T22:31:02.009Z,94250.47
2018-12-16T22:33:29.813Z,94253.94
2018-12-16T22:35:57.472Z,94260.91
2018-12-16T22:38:25.099Z,94256.45
2018-12-16T22:40:52.773Z,94259.86
2018-12-16T22:43:20.421Z,94257.89
2018-12-16T22:45:49.102Z,94254.77
2018-12-16T22:48:16.882Z,94245.53
2018-12-16T22:50:44.600Z,94247.35
2018-12-16T22:53:12.305Z,94253.22
2018-12-16T22:55:39.997Z,94251.73
2018-12-16T22:58:08.311Z,94253.58
2018-12-16T23:00:41.415Z,94239.92
2018-12-16T23:03:10.057Z,94244.51
2018-12-16T23:05:38.292Z,94239.92
2018-12-16T23:08:06.008Z,94236.24
2018-12-16T23:10:33.674Z,94232.88
2018-12-16T23:13:01.376Z,94235.04
2018-12-16T23:15:28.990Z,94237.81
2018-12-16T23:17:56.650Z,94227.03
2018-12-16T23:20:26.386Z,94222.91
2018-12-16T23:22:54.105Z,94227.82
2018-12-16T23:25:22.325Z,94224.14
2018-12-16T23:27:54.197Z,94216.23
2018-12-16T23:30:20.931Z,94211.89
2018-12-16T23:32:48.604Z,94179.66
2018-12-16T23:35:16.282Z,94192.81
2018-12-16T23:37:44.895Z,94200.58
2018-12-16T23:42:58.336Z,94192.80
2018-12-16T23:45:25.927Z,94186.25
2018-12-16T23:47:53.646Z,94187.86
2018-12-16T23:50:22.449Z,94185.00
2018-12-16T23:52:50.901Z,94185.56
2018-12-16T23:55:18.501Z,94181.48
2018-12-16T23:57:48.888Z,94181.73
